createdAt,value
2018-02-20T00:02:29.291Z,99588.83
2018-02-20T00:08:33.852Z,99590.92
2018-02-20T00:14:38.667Z,99593.14
2018-02-20T00:20:44.327Z,99594.07
2018-02-20T00:26:48.843Z,99587.94
2018-02-20T00:32:53.423Z,99589.63
2018-02-20T00:38:57.950Z,99594.66
2018-02-20T00:45:02.441Z,99596.25
2018-02-20T00:51:07.107Z,99593.36
2018-02-20T00:57:11.621Z,99588.68
2018-02-20T01:03:16.112Z,99592.13
2018-02-20T01:09:20.728Z,99585.80
2018-02-20T01:15:25.310Z,99580.42
2018-02-20T01:21:29.975Z,99581.66
2018-02-20T01:27:34.720Z,99573.66
2018-02-20T01:33:39.206Z,99573.62
2018-02-20T01:39:43.723Z,99573.81
2018-02-20T01:45:48.388Z,99572.77
2018-02-20T01:51:54.952Z,99570.56
2018-02-20T01:58:00.350Z,99568.86
2018-02-20T02:04:04.895Z,99568.44
2018-02-20T02:10:09.396Z,99565.36
2018-02-20T02:16:14.646Z,99562.02
2018-02-20T02:22:19.345Z,99561.89
2018-02-20T02:28:24.275Z,99559.68
2018-02-20T02:34:28.822Z,99561.25
2018-02-20T02:40:33.412Z,99564.83
2018-02-20T02:46:38.697Z,99564.00
2018-02-20T02:52:43.329Z,99560.53
2018-02-20T02:58:47.844Z,99565.48
2018-02-20T03:04:52.465Z,99565.27
2018-02-20T03:10:56.989Z,99565.74
2018-02-20T03:17:01.525Z,99566.03
2018-02-20T03:23:06.002Z,99568.06
2018-02-20T03:29:10.543Z,99564.44
2018-02-20T03:35:15.029Z,99566.30
2018-02-20T03:41:19.911Z,99560.81
2018-02-20T03:47:25.301Z,99569.89
2018-02-20T03:53:29.803Z,99568.77
2018-02-20T03:59:35.365Z,99566.84
2018-02-20T04:05:40.799Z,99572.52
2018-02-20T04:11:45.310Z,99578.62
2018-02-20T04:17:50.280Z,99578.68
2018-02-20T04:23:55.110Z,99574.73
2018-02-20T04:29:59.728Z,99579.58
2018-02-20T04:36:04.226Z,99579.29
2018-02-20T04:42:09.531Z,99570.95
2018-02-20T04:48:14.203Z,99571.77
2018-02-20T04:54:19.211Z,99576.20
2018-02-20T05:00:23.815Z,99576.27
2018-02-20T05:06:28.327Z,99575.78
2018-02-20T05:12:32.941Z,99585.18
2018-02-20T05:18:37.527Z,99586.20
2018-02-20T05:24:42.014Z,99579.38
2018-02-20T05:30:46.571Z,99586.19
2018-02-20T05:36:51.057Z,99587.79
2018-02-20T05:42:55.573Z,99592.65
2018-02-20T05:49:00.207Z,99594.73
2018-02-20T05:55:05.124Z,99591.33
2018-02-20T06:01:09.665Z,99599.48
2018-02-20T06:07:14.450Z,99597.69
2018-02-20T06:13:19.341Z,99604.14
2018-02-20T06:19:24.273Z,99607.06
2018-02-20T06:25:28.820Z,99609.03
2018-02-20T06:31:33.504Z,99600.73
2018-02-20T06:37:38.118Z,99606.05
2018-02-20T06:43:42.812Z,99615.80
2018-02-20T06:49:47.499Z,99611.54
2018-02-20T06:55:53.548Z,99615.84
2018-02-20T07:01:58.443Z,99617.33
2018-02-20T07:08:02.923Z,99614.86
2018-02-20T07:14:07.418Z,99611.80
2018-02-20T07:20:12.070Z,99608.86
2018-02-20T07:26:16.689Z,99606.00
2018-02-20T07:32:21.199Z,99609.34
2018-02-20T07:38:26.722Z,99615.76
2018-02-20T07:44:32.163Z,99618.34
2018-02-20T07:50:36.727Z,99624.44
2018-02-20T07:56:41.218Z,99617.27
2018-02-20T08:02:45.746Z,99613.34
2018-02-20T08:08:51.156Z,99616.59
2018-02-20T08:14:56.425Z,99621.30
2018-02-20T08:21:00.919Z,99623.38
2018-02-20T08:27:06.158Z,99623.22
2018-02-20T08:33:10.709Z,99620.25
2018-02-20T08:39:15.480Z,99625.03
2018-02-20T08:45:21.542Z,99624.78
2018-02-20T08:51:26.084Z,99628.02
2018-02-20T08:57:30.590Z,99620.06
2018-02-20T09:03:35.051Z,99614.75
2018-02-20T09:09:40.316Z,99601.78
2018-02-20T09:15:44.869Z,99598.98
2018-02-20T09:21:49.404Z,99601.84
2018-02-20T09:27:54.190Z,99604.79
2018-02-20T09:33:58.647Z,99613.52
2018-02-20T09:40:03.878Z,99616.14
2018-02-20T09:46:08.362Z,99608.83
2018-02-20T09:52:13.757Z,99600.55
2018-02-20T09:58:18.253Z,99602.26
2018-02-20T10:04:24.315Z,99600.33
2018-02-20T10:10:28.780Z,99593.41
2018-02-20T10:16:34.332Z,99589.78
2018-02-20T10:22:38.833Z,99592.62
2018-02-20T10:28:43.422Z,99589.76
2018-02-20T10:34:48.048Z,99578.26
2018-02-20T10:40:52.748Z,99580.64
2018-02-20T10:46:57.291Z,99583.55
2018-02-20T10:53:01.777Z,99586.22
2018-02-20T10:59:07.015Z,99581.04
2018-02-20T11:05:11.534Z,99582.45
2018-02-20T11:11:16.833Z,99580.26
2018-02-20T11:17:22.613Z,99590.96
2018-02-20T11:23:27.091Z,99583.14
2018-02-20T11:29:31.586Z,99593.22
2018-02-20T11:35:36.325Z,99575.31
2018-02-20T11:41:40.930Z,99574.31
2018-02-20T11:47:45.470Z,99573.42
2018-02-20T11:53:50.393Z,99565.91
2018-02-20T11:59:55.318Z,99556.39
2018-02-20T12:05:59.957Z,99567.70
2018-02-20T12:12:04.414Z,99563.89
2018-02-20T12:18:09.051Z,99556.77
2018-02-20T12:24:14.360Z,99558.05
2018-02-20T12:30:19.132Z,99554.38
2018-02-20T12:36:24.083Z,99554.38
2018-02-20T12:42:28.621Z,99558.94
2018-02-20T12:48:33.124Z,99558.71
2018-02-20T12:54:37.685Z,99556.94
2018-02-20T13:00:42.446Z,99557.13
2018-02-20T13:06:47.013Z,99560.54
2018-02-20T13:12:51.676Z,99561.02
2018-02-20T13:18:56.300Z,99566.19
2018-02-20T13:25:00.819Z,99566.50
2018-02-20T13:31:05.357Z,99565.25
2018-02-20T13:37:09.821Z,99579.03
2018-02-20T13:43:14.352Z,99563.11
2018-02-20T13:49:18.970Z,99559.73
2018-02-20T13:55:24.241Z,99576.45
2018-02-20T14:01:28.690Z,99569.22
2018-02-20T14:07:33.248Z,99575.93
2018-02-20T14:13:37.753Z,99580.51
2018-02-20T14:19:42.233Z,99580.90
2018-02-20T14:25:46.855Z,99593.08
2018-02-20T14:31:51.511Z,99601.63
2018-02-20T14:37:56.155Z,99614.54
2018-02-20T14:44:00.679Z,99610.91
2018-02-20T14:50:05.580Z,99614.17
2018-02-20T14:56:10.988Z,99610.36
2018-02-20T15:02:15.479Z,99619.16
2018-02-20T15:08:20.121Z,99628.48
2018-02-20T15:14:24.652Z,99641.06
2018-02-20T15:20:29.959Z,99652.19
2018-02-20T15:26:34.467Z,99646.81
2018-02-20T15:32:39.085Z,99665.73
2018-02-20T15:38:43.706Z,99663.00
2018-02-20T15:44:48.416Z,99672.72
2018-02-20T15:50:53.878Z,99683.69
2018-02-20T15:56:58.346Z,99692.91
2018-02-20T16:03:02.863Z,99701.44
2018-02-20T16:09:07.818Z,99709.47
2018-02-20T16:15:12.361Z,99717.45
2018-02-20T16:21:17.821Z,99728.03
2018-02-20T16:27:23.633Z,99737.45
2018-02-20T16:33:28.237Z,99746.63
2018-02-20T16:39:33.467Z,99745.78
2018-02-20T16:45:38.046Z,99753.58
2018-02-20T16:51:42.629Z,99760.10
2018-02-20T16:57:47.173Z,99761.77
2018-02-20T17:03:51.844Z,99768.48
2018-02-20T17:09:56.405Z,99774.48
2018-02-20T17:16:01.025Z,99779.54
2018-02-20T17:22:05.563Z,99792.91
2018-02-20T17:28:10.073Z,99803.80
2018-02-20T17:34:14.629Z,99805.40
2018-02-20T17:40:19.633Z,99807.25
2018-02-20T17:46:24.252Z,99807.56
2018-02-20T17:52:28.851Z,99815.00
2018-02-20T17:58:33.351Z,99821.88
2018-02-20T18:04:37.847Z,99824.20
2018-02-20T18:10:42.468Z,99832.28
2018-02-20T18:16:46.993Z,99836.67
2018-02-20T18:22:52.305Z,99849.87
2018-02-20T18:28:57.587Z,99851.95
2018-02-20T18:35:02.209Z,99860.52
2018-02-20T18:41:06.953Z,99860.84
2018-02-20T18:47:11.527Z,99863.39
2018-02-20T18:53:16.193Z,99870.03
2018-02-20T18:59:21.367Z,99876.84
2018-02-20T19:05:26.048Z,99873.84
2018-02-20T19:11:30.618Z,99874.81
2018-02-20T19:17:36.798Z,99876.48
2018-02-20T19:23:42.977Z,99876.12
2018-02-20T19:29:47.459Z,99884.36
2018-02-20T19:35:52.684Z,99894.08
2018-02-20T19:41:58.019Z,99900.98
2018-02-20T19:48:02.501Z,99900.97
2018-02-20T19:54:07.120Z,99896.27
2018-02-20T20:00:11.565Z,99908.64
2018-02-20T20:06:16.338Z,99910.26
2018-02-20T20:12:22.430Z,99902.89
2018-02-20T20:18:26.993Z,99908.50
2018-02-20T20:24:31.644Z,99907.50
2018-02-20T20:30:36.379Z,99918.22
2018-02-20T20:36:40.989Z,99918.45
2018-02-20T20:42:45.623Z,99922.56
2018-02-20T20:48:52.162Z,99928.55
2018-02-20T20:54:56.683Z,99927.69
2018-02-20T21:01:01.355Z,99932.16
2018-02-20T21:07:06.036Z,99927.34
2018-02-20T21:13:10.566Z,99931.34
2018-02-20T21:19:15.857Z,99944.30
2018-02-20T21:25:21.039Z,99929.16
2018-02-20T21:31:26.502Z,99937.10
2018-02-20T21:37:31.052Z,99942.77
2018-02-20T21:43:35.659Z,99945.11
2018-02-20T21:49:40.425Z,99940.47
2018-02-20T21:55:44.957Z,99943.72
2018-02-20T22:01:49.527Z,99943.13
2018-02-20T22:07:54.604Z,99950.94
2018-02-20T22:13:59.355Z,99959.02
2018-02-20T22:20:03.868Z,99968.80
2018-02-20T22:26:08.538Z,99971.42
2018-02-20T22:32:13.253Z,99977.67
2018-02-20T22:38:17.787Z,99982.55
2018-02-20T22:44:22.350Z,99988.84
2018-02-20T22:50:26.880Z,99996.75
2018-02-20T22:56:31.443Z,100001.59
2018-02-20T23:02:35.974Z,100011.70
2018-02-20T23:08:41.228Z,100020.15
2018-02-20T23:14:45.726Z,100020.36
2018-02-20T23:20:50.374Z,100019.22
2018-02-20T23:26:55.190Z,100024.53
2018-02-20T23:32:59.691Z,100028.00
2018-02-20T23:39:05.067Z,100038.03
2018-02-20T23:45:09.550Z,100041.72
2018-02-20T23:51:20.160Z,100046.48
2018-02-20T23:57:25.690Z,100050.80
